Brodhead, KY (40409)

4:05 PM EDT on July 28, 2014 (GMT -0400)
K. Bracketts Weather Station 39 N (KKYCRABO2) Elev 952 ft | 37.47 °N, 84.51 °W | Change Station

Current weather conditions updated 2 seconds ago

Overcast
Overcast
83.5 °F
Feels Like 91 °F
N
0.0
Wind Variable Wind from NNE
Gusts 3.8 mph

Tomorrow is forecast to be Much Cooler than today.

Today
High -- | Low -- °F
--% Chance of Precip.
Yesterday
High -- | Low -- °F
Precip. -- in
6:38 AM 8:49 PM
Waxing Crescent, 3% visible
Pressure 29.98 in
Visibility 10.0 miles
Clouds Overcast 5000 ft
Heat Index 91 °F
Dew Point 74 °F
Humidity 74%
Rainfall 0.00 in
Snow Depth Not available.
UV 3 out of 12
Pollen 4.70 out of 12
Air Quality Not available.
Flu Activity Not available.
METAR KI39 281935Z AUTO 32010KT 10SM OVC050 22/15 A2998 RMK AO2

More Conditions Fewer Conditions

Pressure 29.98 in
Visibility 10.0 miles
Clouds Overcast 5000 ft
Heat Index 91 °F
Dew Point 74 °F
Humidity 74%
Rainfall 0.00 in
Snow Depth Not available.
UV 3 out of 12
Pollen 4.70 out of 12
Air Quality Not available.
Flu Activity Not available.
METAR KI39 281935Z AUTO 32010KT 10SM OVC050 22/15 A2998 RMK AO2

More Conditions Fewer Conditions

10-Day Weather Forecast

Almanac

Astronomy

Jul. 28, 2014 Rise Set
Actual Time 6:38 AM EDT 8:49 PM EDT
Civil Twilight 6:09 AM EDT 9:18 PM EDT
Nautical Twilight 5:33 AM EDT 9:53 PM EDT
Astronomical Twilight 4:54 AM EDT 10:32 PM EDT
Moon 8:16 AM EDT 9:34 PM EDT
Length of Visible Light 15h 08m
Length of Day
14h 10m
Tomorrow will be 1m 41s shorter.
Waxing Crescent, 3% of the Moon is Illuminated
Today
Waxing Crescent
Aug 3
First Quarter
Aug 10
Full
Aug 17
Last Quarter
Aug 25
New

Today's Extremes

State Highs State Lows

Community

WunderPhotos

Upload Photos

1,738,486 photos uploaded!

Nearby

Snow Depth

Station Depth Elevation
No new snow has been reported.

Earthquake Activity

City Distance Mag. Time & Date
No recent earthquake activity has been reported nearby.
Minimum magnitude displayed is 2.5.

Coastal Water Temperatures

Place Temperature
No Stations Reporting

Nearby Weather Stations

Station Location Temp. Heat Index Dew Point Humidity Wind Precip. Elev Updated Type
K. Bracketts Weather Station 39 N, Crab Orchard, KY 83.5 °F 91 °F 74 °F 74% NNE  at  0.0 mph 0.00 in / hr 952 ft 4:05 PM EDT Rapid Fire
HALLS BACKYARD WEATHER, SCIENCE HILL, KY 78.8 °F 80 °F 60 °F 53% SSE  at  0.0 mph 0.00 in / hr 1076 ft 4:04 PM EDT Normal
RMR - Somerset, Ferguson, KY 77.3 °F 79 °F 64 °F 64% WSW  at  4.0 mph 0.00 in / hr 909 ft 3:54 PM EDT Normal
RAWS SOMERSET KY, Ferguson, KY 78 °F 80 °F 62 °F 59% WSW  at  10 mph 0.00 in / hr 920 ft 3:01 PM EDT MADIS

Show More Stations Show Fewer Stations